sensor_id;sensor_type;location;lat;lon;timestamp;pressure;altitude;pressure_sealevel;temperature;humidity
44663;BME280;30381;52.754;18.258;2023-04-28T00:01:24;101210.90;;;0.61;79.43
44663;BME280;30381;52.754;18.258;2023-04-28T00:03:52;101206.73;;;0.58;79.66
44663;BME280;30381;52.754;18.258;2023-04-28T00:06:21;101209.96;;;0.55;79.91
44663;BME280;30381;52.754;18.258;2023-04-28T00:08:48;101210.35;;;0.51;80.01
44663;BME280;30381;52.754;18.258;2023-04-28T00:11:14;101211.66;;;0.49;80.33
44663;BME280;30381;52.754;18.258;2023-04-28T00:13:40;101213.60;;;0.47;80.36
44663;BME280;30381;52.754;18.258;2023-04-28T00:16:07;101214.95;;;0.44;80.84
44663;BME280;30381;52.754;18.258;2023-04-28T00:18:36;101216.59;;;0.41;80.97
44663;BME280;30381;52.754;18.258;2023-04-28T00:21:05;101219.60;;;0.38;80.99
44663;BME280;30381;52.754;18.258;2023-04-28T00:23:58;101216.96;;;0.33;80.88
44663;BME280;30381;52.754;18.258;2023-04-28T00:26:40;101218.69;;;0.28;81.25
44663;BME280;30381;52.754;18.258;2023-04-28T00:29:30;101222.29;;;0.24;81.55
44663;BME280;30381;52.754;18.258;2023-04-28T00:32:06;101219.64;;;0.22;81.74
44663;BME280;30381;52.754;18.258;2023-04-28T00:34:57;101220.68;;;0.19;82.07
44663;BME280;30381;52.754;18.258;2023-04-28T00:37:34;101223.15;;;0.15;82.15
44663;BME280;30381;52.754;18.258;2023-04-28T00:40:08;101220.95;;;0.13;82.38
44663;BME280;30381;52.754;18.258;2023-04-28T00:43:01;101220.98;;;0.11;82.63
44663;BME280;30381;52.754;18.258;2023-04-28T00:45:38;101219.36;;;0.08;82.87
44663;BME280;30381;52.754;18.258;2023-04-28T00:48:14;101220.94;;;0.06;83.08
44663;BME280;30381;52.754;18.258;2023-04-28T00:51:01;101220.10;;;0.02;82.96
44663;BME280;30381;52.754;18.258;2023-04-28T00:53:44;101219.85;;;-0.01;83.41
44663;BME280;30381;52.754;18.258;2023-04-28T00:56:29;101218.16;;;-0.04;83.54
44663;BME280;30381;52.754;18.258;2023-04-28T00:59:15;101214.73;;;-0.06;83.63
44663;BME280;30381;52.754;18.258;2023-04-28T01:01:55;101217.14;;;-0.09;83.76
44663;BME280;30381;52.754;18.258;2023-04-28T01:04:36;101218.35;;;-0.12;84.03
44663;BME280;30381;52.754;18.258;2023-04-28T01:07:30;101212.31;;;-0.16;84.36
44663;BME280;30381;52.754;18.258;2023-04-28T01:11:44;101214.33;;;-0.12;84.95
44663;BME280;30381;52.754;18.258;2023-04-28T01:14:12;101214.54;;;-0.12;85.41
44663;BME280;30381;52.754;18.258;2023-04-28T01:16:58;101216.97;;;-0.09;85.43
44663;BME280;30381;52.754;18.258;2023-04-28T01:19:47;101215.65;;;-0.09;85.67
44663;BME280;30381;52.754;18.258;2023-04-28T01:22:16;101216.88;;;-0.09;85.79
44663;BME280;30381;52.754;18.258;2023-04-28T01:24:53;101213.02;;;-0.09;86.10
44663;BME280;30381;52.754;18.258;2023-04-28T01:27:27;101215.50;;;-0.11;85.92
44663;BME280;30381;52.754;18.258;2023-04-28T01:29:55;101215.47;;;-0.14;85.99
44663;BME280;30381;52.754;18.258;2023-04-28T01:32:26;101214.43;;;-0.16;86.29
44663;BME280;30381;52.754;18.258;2023-04-28T01:34:56;101218.41;;;-0.18;86.30
44663;BME280;30381;52.754;18.258;2023-04-28T01:37:37;101216.13;;;-0.22;86.35
44663;BME280;30381;52.754;18.258;2023-04-28T01:40:08;101217.33;;;-0.25;86.72
44663;BME280;30381;52.754;18.258;2023-04-28T01:51:49;101209.95;;;-0.42;87.19
44663;BME280;30381;52.754;18.258;2023-04-28T01:54:17;101210.47;;;-0.46;87.22
44663;BME280;30381;52.754;18.258;2023-04-28T01:56:48;101209.08;;;-0.49;87.28
44663;BME280;30381;52.754;18.258;2023-04-28T01:59:19;101205.74;;;-0.53;87.39
44663;BME280;30381;52.754;18.258;2023-04-28T02:02:28;101208.21;;;-0.59;87.48
44663;BME280;30381;52.754;18.258;2023-04-28T02:05:04;101208.13;;;-0.63;87.55
44663;BME280;30381;52.754;18.258;2023-04-28T02:14:01;101207.79;;;-0.72;88.26
44663;BME280;30381;52.754;18.258;2023-04-28T02:17:16;101205.84;;;-0.77;88.49
44663;BME280;30381;52.754;18.258;2023-04-28T02:20:07;101204.57;;;-0.81;88.62
44663;BME280;30381;52.754;18.258;2023-04-28T02:23:01;101208.01;;;-0.85;88.69
44663;BME280;30381;52.754;18.258;2023-04-28T02:26:05;101207.52;;;-0.89;88.85
44663;BME280;30381;52.754;18.258;2023-04-28T02:28:56;101210.00;;;-0.93;88.95
44663;BME280;30381;52.754;18.258;2023-04-28T02:31:29;101218.23;;;-0.96;89.25
44663;BME280;30381;52.754;18.258;2023-04-28T02:34:01;101212.27;;;-0.99;89.40
44663;BME280;30381;52.754;18.258;2023-04-28T02:36:38;101216.19;;;-1.00;89.46
44663;BME280;30381;52.754;18.258;2023-04-28T02:39:32;101216.64;;;-1.03;89.79
44663;BME280;30381;52.754;18.258;2023-04-28T02:42:33;101212.36;;;-1.06;90.11
44663;BME280;30381;52.754;18.258;2023-04-28T02:45:09;101215.32;;;-1.08;89.96
44663;BME280;30381;52.754;18.258;2023-04-28T02:47:35;101216.42;;;-1.10;90.12
44663;BME280;30381;52.754;18.258;2023-04-28T02:50:44;101216.77;;;-1.14;90.14
44663;BME280;30381;52.754;18.258;2023-04-28T02:53:34;101216.27;;;-1.18;90.36
44663;BME280;30381;52.754;18.258;2023-04-28T02:56:14;101216.64;;;-1.20;90.32
44663;BME280;30381;52.754;18.258;2023-04-28T02:59:23;101217.46;;;-1.23;91.04
44663;BME280;30381;52.754;18.258;2023-04-28T03:01:53;101216.73;;;-1.22;91.37
44663;BME280;30381;52.754;18.258;2023-04-28T03:04:22;101214.79;;;-1.22;91.53
44663;BME280;30381;52.754;18.258;2023-04-28T03:07:07;101209.69;;;-1.25;91.71
44663;BME280;30381;52.754;18.258;2023-04-28T03:09:48;101210.48;;;-1.27;91.46
44663;BME280;30381;52.754;18.258;2023-04-28T03:12:43;101212.14;;;-1.30;91.49
44663;BME280;30381;52.754;18.258;2023-04-28T03:15:17;101207.05;;;-1.33;91.51
44663;BME280;30381;52.754;18.258;2023-04-28T03:18:04;101208.48;;;-1.35;91.77
44663;BME280;30381;52.754;18.258;2023-04-28T03:21:12;101210.45;;;-1.37;91.74
44663;BME280;30381;52.754;18.258;2023-04-28T03:23:41;101209.14;;;-1.38;91.77
44663;BME280;30381;52.754;18.258;2023-04-28T03:26:31;101210.29;;;-1.39;91.80
44663;BME280;30381;52.754;18.258;2023-04-28T03:29:23;101213.41;;;-1.38;92.20
44663;BME280;30381;52.754;18.258;2023-04-28T03:33:34;101216.55;;;-1.32;92.51
44663;BME280;30381;52.754;18.258;2023-04-28T03:36:01;101216.33;;;-1.29;92.66
44663;BME280;30381;52.754;18.258;2023-04-28T03:39:03;101219.57;;;-1.24;93.04
44663;BME280;30381;52.754;18.258;2023-04-28T03:41:33;101221.60;;;-1.20;93.34
44663;BME280;30381;52.754;18.258;2023-04-28T03:44:02;101222.52;;;-1.13;93.68
44663;BME280;30381;52.754;18.258;2023-04-28T03:46:32;101226.32;;;-1.06;93.85
44663;BME280;30381;52.754;18.258;2023-04-28T03:49:11;101228.38;;;-0.98;93.86
44663;BME280;30381;52.754;18.258;2023-04-28T03:51:46;101222.17;;;-0.91;94.27
44663;BME280;30381;52.754;18.258;2023-04-28T03:54:16;101224.73;;;-0.82;94.29
44663;BME280;30381;52.754;18.258;2023-04-28T03:56:46;101226.34;;;-0.74;94.62
44663;BME280;30381;52.754;18.258;2023-04-28T03:59:22;101229.90;;;-0.63;94.94
44663;BME280;30381;52.754;18.258;2023-04-28T04:08:25;101223.15;;;1.40;97.15
44663;BME280;30381;52.754;18.258;2023-04-28T04:11:12;101220.17;;;2.92;97.37
44663;BME280;30381;52.754;18.258;2023-04-28T04:13:42;101218.64;;;4.10;97.06
44663;BME280;30381;52.754;18.258;2023-04-28T04:16:12;101217.70;;;5.24;96.14
44663;BME280;30381;52.754;18.258;2023-04-28T04:18:43;101219.34;;;6.32;94.63
44663;BME280;30381;52.754;18.258;2023-04-28T04:21:19;101224.33;;;7.25;92.29
44663;BME280;30381;52.754;18.258;2023-04-28T04:23:47;101220.00;;;8.01;90.01
44663;BME280;30381;52.754;18.258;2023-04-28T04:26:13;101221.63;;;8.75;88.89
44663;BME280;30381;52.754;18.258;2023-04-28T04:28:41;101217.50;;;9.34;86.21
44663;BME280;30381;52.754;18.258;2023-04-28T04:31:07;101212.42;;;9.82;85.01
44663;BME280;30381;52.754;18.258;2023-04-28T04:33:33;101214.88;;;10.20;82.85
44663;BME280;30381;52.754;18.258;2023-04-28T04:36:01;101218.27;;;10.65;82.75
44663;BME280;30381;52.754;18.258;2023-04-28T04:38:27;101215.02;;;11.16;82.10
44663;BME280;30381;52.754;18.258;2023-04-28T04:40:54;101210.37;;;11.72;81.29
44663;BME280;30381;52.754;18.258;2023-04-28T04:43:20;101210.40;;;12.23;80.60
44663;BME280;30381;52.754;18.258;2023-04-28T04:45:50;101205.65;;;12.70;79.38
44663;BME280;30381;52.754;18.258;2023-04-28T04:48:18;101205.85;;;13.11;78.37
44663;BME280;30381;52.754;18.258;2023-04-28T04:50:46;101207.02;;;13.13;75.98
44663;BME280;30381;52.754;18.258;2023-04-28T04:53:14;101209.09;;;13.43;77.19
44663;BME280;30381;52.754;18.258;2023-04-28T04:55:41;101202.55;;;13.89;77.63
44663;BME280;30381;52.754;18.258;2023-04-28T04:58:08;101202.27;;;14.25;75.15
44663;BME280;30381;52.754;18.258;2023-04-28T05:00:36;101203.08;;;14.39;74.86
44663;BME280;30381;52.754;18.258;2023-04-28T05:03:05;101208.11;;;14.67;74.94
44663;BME280;30381;52.754;18.258;2023-04-28T05:05:31;101207.41;;;15.03;74.48
44663;BME280;30381;52.754;18.258;2023-04-28T05:07:59;101207.70;;;15.29;73.29
44663;BME280;30381;52.754;18.258;2023-04-28T05:10:28;101203.02;;;15.37;71.86
44663;BME280;30381;52.754;18.258;2023-04-28T05:12:55;101204.92;;;15.25;69.58
44663;BME280;30381;52.754;18.258;2023-04-28T05:15:22;101205.13;;;15.15;69.92
44663;BME280;30381;52.754;18.258;2023-04-28T05:17:49;101202.02;;;15.16;69.85
44663;BME280;30381;52.754;18.258;2023-04-28T05:20:27;101199.52;;;15.32;70.19
44663;BME280;30381;52.754;18.258;2023-04-28T05:22:54;101200.02;;;15.57;69.71
44663;BME280;30381;52.754;18.258;2023-04-28T05:25:22;101202.09;;;15.82;69.65
44663;BME280;30381;52.754;18.258;2023-04-28T05:27:48;101199.06;;;16.17;69.37
44663;BME280;30381;52.754;18.258;2023-04-28T05:30:27;101200.95;;;16.62;69.68
44663;BME280;30381;52.754;18.258;2023-04-28T05:32:55;101201.55;;;17.01;68.86
44663;BME280;30381;52.754;18.258;2023-04-28T05:35:22;101202.62;;;17.37;68.33
44663;BME280;30381;52.754;18.258;2023-04-28T05:37:48;101196.00;;;17.71;67.88
44663;BME280;30381;52.754;18.258;2023-04-28T05:40:15;101201.10;;;17.98;67.10
44663;BME280;30381;52.754;18.258;2023-04-28T05:42:42;101197.40;;;18.21;65.97
44663;BME280;30381;52.754;18.258;2023-04-28T05:45:08;101201.03;;;18.48;65.41
44663;BME280;30381;52.754;18.258;2023-04-28T05:47:35;101199.73;;;18.69;64.46
44663;BME280;30381;52.754;18.258;2023-04-28T05:50:01;101200.41;;;18.85;63.56
44663;BME280;30381;52.754;18.258;2023-04-28T05:52:29;101204.34;;;18.96;63.07
44663;BME280;30381;52.754;18.258;2023-04-28T05:54:57;101207.67;;;19.20;62.83
44663;BME280;30381;52.754;18.258;2023-04-28T05:57:25;101211.56;;;19.37;61.61
44663;BME280;30381;52.754;18.258;2023-04-28T05:59:54;101211.79;;;19.45;61.37
44663;BME280;30381;52.754;18.258;2023-04-28T06:02:25;101213.33;;;19.57;60.67
44663;BME280;30381;52.754;18.258;2023-04-28T06:04:53;101206.31;;;19.78;60.43
44663;BME280;30381;52.754;18.258;2023-04-28T06:07:22;101203.23;;;19.99;59.92
44663;BME280;30381;52.754;18.258;2023-04-28T06:09:51;101210.61;;;20.10;58.51
44663;BME280;30381;52.754;18.258;2023-04-28T06:12:17;101210.57;;;20.02;57.75
44663;BME280;30381;52.754;18.258;2023-04-28T06:14:44;101207.30;;;19.97;57.30
44663;BME280;30381;52.754;18.258;2023-04-28T06:17:17;101203.41;;;19.96;56.86
44663;BME280;30381;52.754;18.258;2023-04-28T06:19:46;101201.11;;;19.95;55.89
44663;BME280;30381;52.754;18.258;2023-04-28T06:22:13;101201.16;;;19.97;55.20
44663;BME280;30381;52.754;18.258;2023-04-28T06:24:40;101201.38;;;19.97;54.83
44663;BME280;30381;52.754;18.258;2023-04-28T06:27:07;101202.62;;;20.08;54.30
44663;BME280;30381;52.754;18.258;2023-04-28T06:29:34;101198.05;;;20.26;54.25
44663;BME280;30381;52.754;18.258;2023-04-28T06:32:00;101197.74;;;20.46;53.39
44663;BME280;30381;52.754;18.258;2023-04-28T06:34:29;101198.91;;;20.57;53.17
44663;BME280;30381;52.754;18.258;2023-04-28T06:37:00;101198.21;;;20.50;51.76
44663;BME280;30381;52.754;18.258;2023-04-28T06:39:27;101196.89;;;20.54;52.09
44663;BME280;30381;52.754;18.258;2023-04-28T06:41:54;101193.63;;;20.76;50.94
44663;BME280;30381;52.754;18.258;2023-04-28T06:44:20;101195.81;;;20.95;50.96
44663;BME280;30381;52.754;18.258;2023-04-28T06:46:47;101193.04;;;21.03;50.02
44663;BME280;30381;52.754;18.258;2023-04-28T06:49:13;101191.96;;;20.99;49.63
44663;BME280;30381;52.754;18.258;2023-04-28T06:51:46;101191.25;;;21.04;49.16
44663;BME280;30381;52.754;18.258;2023-04-28T06:54:13;101193.42;;;21.12;48.84
44663;BME280;30381;52.754;18.258;2023-04-28T06:56:42;101195.09;;;21.18;48.24
44663;BME280;30381;52.754;18.258;2023-04-28T06:59:08;101190.55;;;21.21;47.51
44663;BME280;30381;52.754;18.258;2023-04-28T07:01:35;101192.22;;;21.02;46.27
44663;BME280;30381;52.754;18.258;2023-04-28T07:04:01;101186.57;;;20.47;43.30
44663;BME280;30381;52.754;18.258;2023-04-28T07:06:29;101193.77;;;19.85;44.20
44663;BME280;30381;52.754;18.258;2023-04-28T07:08:57;101188.70;;;19.59;43.92
44663;BME280;30381;52.754;18.258;2023-04-28T07:11:29;101189.38;;;19.16;43.73
44663;BME280;30381;52.754;18.258;2023-04-28T07:14:06;101187.73;;;19.20;44.40
44663;BME280;30381;52.754;18.258;2023-04-28T07:16:33;101181.79;;;19.27;43.21
44663;BME280;30381;52.754;18.258;2023-04-28T07:19:08;101180.66;;;18.76;42.02
44663;BME280;30381;52.754;18.258;2023-04-28T07:21:35;101173.44;;;18.51;42.36
44663;BME280;30381;52.754;18.258;2023-04-28T07:24:01;101167.52;;;18.53;42.38
44663;BME280;30381;52.754;18.258;2023-04-28T07:26:28;101167.48;;;18.61;41.74
44663;BME280;30381;52.754;18.258;2023-04-28T07:28:55;101165.50;;;18.37;41.31
44663;BME280;30381;52.754;18.258;2023-04-28T07:31:25;101167.23;;;18.24;41.60
44663;BME280;30381;52.754;18.258;2023-04-28T07:33:55;101164.89;;;18.25;41.57
44663;BME280;30381;52.754;18.258;2023-04-28T07:36:26;101163.61;;;18.00;40.64
44663;BME280;30381;52.754;18.258;2023-04-28T07:38:53;101163.20;;;17.65;40.25
44663;BME280;30381;52.754;18.258;2023-04-28T07:41:29;101164.62;;;16.93;39.83
44663;BME280;30381;52.754;18.258;2023-04-28T07:43:57;101160.77;;;16.42;40.01
44663;BME280;30381;52.754;18.258;2023-04-28T07:46:24;101161.11;;;16.12;39.92
44663;BME280;30381;52.754;18.258;2023-04-28T07:48:52;101158.10;;;16.23;39.88
44663;BME280;30381;52.754;18.258;2023-04-28T07:51:24;101159.48;;;15.97;38.76
44663;BME280;30381;52.754;18.258;2023-04-28T07:54:02;101160.37;;;15.51;38.52
44663;BME280;30381;52.754;18.258;2023-04-28T07:56:43;101155.23;;;15.42;39.00
44663;BME280;30381;52.754;18.258;2023-04-28T07:59:09;101151.80;;;15.65;39.48
44663;BME280;30381;52.754;18.258;2023-04-28T08:01:38;101152.58;;;15.86;38.73
44663;BME280;30381;52.754;18.258;2023-04-28T08:04:07;101147.08;;;16.18;39.26
44663;BME280;30381;52.754;18.258;2023-04-28T08:06:33;101147.25;;;16.77;39.47
44663;BME280;30381;52.754;18.258;2023-04-28T08:09:01;101144.05;;;17.36;39.26
44663;BME280;30381;52.754;18.258;2023-04-28T08:11:27;101139.56;;;17.78;38.79
44663;BME280;30381;52.754;18.258;2023-04-28T08:13:53;101138.44;;;17.93;38.40
44663;BME280;30381;52.754;18.258;2023-04-28T08:16:27;101134.07;;;18.00;38.32
44663;BME280;30381;52.754;18.258;2023-04-28T08:19:29;101131.45;;;18.26;38.50
44663;BME280;30381;52.754;18.258;2023-04-28T08:21:55;101128.38;;;18.15;35.92
44663;BME280;30381;52.754;18.258;2023-04-28T08:24:22;101128.67;;;17.29;35.87
44663;BME280;30381;52.754;18.258;2023-04-28T08:26:49;101129.02;;;16.85;36.30
44663;BME280;30381;52.754;18.258;2023-04-28T08:29:15;101121.38;;;16.74;36.90
44663;BME280;30381;52.754;18.258;2023-04-28T08:31:41;101119.96;;;16.97;36.95
44663;BME280;30381;52.754;18.258;2023-04-28T08:34:10;101121.77;;;17.09;37.23
44663;BME280;30381;52.754;18.258;2023-04-28T08:36:37;101114.70;;;17.51;37.52
44663;BME280;30381;52.754;18.258;2023-04-28T08:39:04;101113.31;;;17.83;37.07
44663;BME280;30381;52.754;18.258;2023-04-28T08:41:37;101110.59;;;18.09;37.00
44663;BME280;30381;52.754;18.258;2023-04-28T08:44:10;101114.58;;;18.33;36.91
44663;BME280;30381;52.754;18.258;2023-04-28T08:46:40;101110.52;;;18.60;36.64
44663;BME280;30381;52.754;18.258;2023-04-28T08:49:21;101110.64;;;18.19;35.78
44663;BME280;30381;52.754;18.258;2023-04-28T08:51:59;101106.23;;;17.70;36.19
44663;BME280;30381;52.754;18.258;2023-04-28T08:54:30;101106.15;;;17.22;36.03
44663;BME280;30381;52.754;18.258;2023-04-28T08:56:57;101098.83;;;17.30;36.40
44663;BME280;30381;52.754;18.258;2023-04-28T08:59:33;101091.94;;;17.59;36.48
44663;BME280;30381;52.754;18.258;2023-04-28T09:02:01;101090.65;;;17.75;36.47
44663;BME280;30381;52.754;18.258;2023-04-28T09:04:30;101090.02;;;18.02;36.62
44663;BME280;30381;52.754;18.258;2023-04-28T09:06:58;101084.38;;;18.11;36.64
44663;BME280;30381;52.754;18.258;2023-04-28T09:09:30;101086.84;;;18.02;36.39
44663;BME280;30381;52.754;18.258;2023-04-28T09:12:00;101083.17;;;18.02;36.37
44663;BME280;30381;52.754;18.258;2023-04-28T09:14:32;101082.63;;;18.19;36.18
44663;BME280;30381;52.754;18.258;2023-04-28T09:17:12;101083.07;;;17.99;35.71
44663;BME280;30381;52.754;18.258;2023-04-28T09:19:41;101076.76;;;17.49;35.93
44663;BME280;30381;52.754;18.258;2023-04-28T09:22:11;101077.44;;;17.58;35.64
44663;BME280;30381;52.754;18.258;2023-04-28T09:24:38;101079.88;;;17.65;35.69
44663;BME280;30381;52.754;18.258;2023-04-28T09:27:08;101076.83;;;17.75;35.42
44663;BME280;30381;52.754;18.258;2023-04-28T09:29:51;101077.65;;;17.82;35.66
44663;BME280;30381;52.754;18.258;2023-04-28T09:32:21;101073.27;;;18.14;35.69
44663;BME280;30381;52.754;18.258;2023-04-28T09:34:50;101070.57;;;18.28;35.40
44663;BME280;30381;52.754;18.258;2023-04-28T09:37:21;101071.89;;;18.25;35.26
44663;BME280;30381;52.754;18.258;2023-04-28T09:39:51;101069.81;;;18.21;35.65
44663;BME280;30381;52.754;18.258;2023-04-28T09:42:40;101064.27;;;18.27;35.45
44663;BME280;30381;52.754;18.258;2023-04-28T09:45:11;101066.02;;;18.29;35.32
44663;BME280;30381;52.754;18.258;2023-04-28T09:47:43;101068.80;;;18.49;35.81
44663;BME280;30381;52.754;18.258;2023-04-28T09:50:14;101065.73;;;18.74;35.69
44663;BME280;30381;52.754;18.258;2023-04-28T09:52:45;101061.54;;;18.94;35.24
44663;BME280;30381;52.754;18.258;2023-04-28T09:55:23;101057.73;;;18.85;34.89
44663;BME280;30381;52.754;18.258;2023-04-28T09:57:53;101057.39;;;18.59;34.42
44663;BME280;30381;52.754;18.258;2023-04-28T10:00:21;101055.14;;;18.24;34.65
44663;BME280;30381;52.754;18.258;2023-04-28T10:02:48;101054.66;;;18.15;34.80
44663;BME280;30381;52.754;18.258;2023-04-28T10:05:16;101050.39;;;18.13;35.04
44663;BME280;30381;52.754;18.258;2023-04-28T10:07:46;101047.73;;;18.33;35.30
44663;BME280;30381;52.754;18.258;2023-04-28T10:10:12;101042.05;;;18.60;35.54
44663;BME280;30381;52.754;18.258;2023-04-28T10:12:42;101043.69;;;18.59;34.50
44663;BME280;30381;52.754;18.258;2023-04-28T10:15:12;101038.46;;;18.17;34.70
44663;BME280;30381;52.754;18.258;2023-04-28T10:17:40;101034.80;;;18.01;34.64
44663;BME280;30381;52.754;18.258;2023-04-28T10:20:10;101029.88;;;17.68;34.56
44663;BME280;30381;52.754;18.258;2023-04-28T10:25:30;101023.98;;;17.71;34.99
44663;BME280;30381;52.754;18.258;2023-04-28T10:28:04;101022.17;;;17.67;34.94
44663;BME280;30381;52.754;18.258;2023-04-28T10:30:30;101018.40;;;17.61;35.17
44663;BME280;30381;52.754;18.258;2023-04-28T10:33:22;101017.16;;;17.56;35.25
44663;BME280;30381;52.754;18.258;2023-04-28T10:35:50;101014.89;;;17.63;34.94
44663;BME280;30381;52.754;18.258;2023-04-28T10:38:19;101013.49;;;17.49;35.06
44663;BME280;30381;52.754;18.258;2023-04-28T10:40:50;101009.23;;;17.48;35.06
44663;BME280;30381;52.754;18.258;2023-04-28T10:51:21;101007.56;;;17.04;34.63
44663;BME280;30381;52.754;18.258;2023-04-28T10:54:08;101004.27;;;16.81;35.11
44663;BME280;30381;52.754;18.258;2023-04-28T10:57:12;101004.13;;;17.08;35.01
44663;BME280;30381;52.754;18.258;2023-04-28T10:59:34;100997.90;;;17.08;35.28
44663;BME280;30381;52.754;18.258;2023-04-28T11:02:38;100989.86;;;17.42;35.40
44663;BME280;30381;52.754;18.258;2023-04-28T11:05:12;100995.05;;;17.67;35.39
44663;BME280;30381;52.754;18.258;2023-04-28T11:11:18;100982.80;;;17.23;35.05
44663;BME280;30381;52.754;18.258;2023-04-28T11:17:03;100980.80;;;16.40;35.06
44663;BME280;30381;52.754;18.258;2023-04-28T11:19:43;100974.18;;;16.17;35.45
44663;BME280;30381;52.754;18.258;2023-04-28T11:22:18;100970.58;;;16.39;35.69
44663;BME280;30381;52.754;18.258;2023-04-28T11:25:01;100966.61;;;16.72;35.81
44663;BME280;30381;52.754;18.258;2023-04-28T11:27:32;100966.00;;;17.13;36.01
44663;BME280;30381;52.754;18.258;2023-04-28T11:30:01;100965.33;;;17.32;35.56
44663;BME280;30381;52.754;18.258;2023-04-28T11:32:32;100968.80;;;17.22;35.37
44663;BME280;30381;52.754;18.258;2023-04-28T11:35:05;100968.10;;;16.98;35.12
44663;BME280;30381;52.754;18.258;2023-04-28T11:37:34;100972.76;;;16.84;35.69
44663;BME280;30381;52.754;18.258;2023-04-28T11:40:09;100968.17;;;16.68;35.63
44663;BME280;30381;52.754;18.258;2023-04-28T11:42:48;100969.42;;;16.70;35.98
44663;BME280;30381;52.754;18.258;2023-04-28T11:45:17;100964.74;;;17.15;36.08
44663;BME280;30381;52.754;18.258;2023-04-28T11:47:49;100960.52;;;17.54;36.05
44663;BME280;30381;52.754;18.258;2023-04-28T11:50:34;100957.86;;;17.73;35.77
44663;BME280;30381;52.754;18.258;2023-04-28T11:53:01;100959.35;;;17.72;35.84
44663;BME280;30381;52.754;18.258;2023-04-28T11:55:34;100958.29;;;17.81;35.90
44663;BME280;30381;52.754;18.258;2023-04-28T11:58:19;100954.23;;;17.90;35.76
44663;BME280;30381;52.754;18.258;2023-04-28T12:01:11;100949.48;;;17.89;36.21
44663;BME280;30381;52.754;18.258;2023-04-28T12:03:42;100951.73;;;17.71;36.19
44663;BME280;30381;52.754;18.258;2023-04-28T12:06:21;100952.70;;;17.41;36.08
44663;BME280;30381;52.754;18.258;2023-04-28T12:08:48;100946.11;;;17.12;35.91
44663;BME280;30381;52.754;18.258;2023-04-28T12:11:19;100944.67;;;17.03;36.07
44663;BME280;30381;52.754;18.258;2023-04-28T12:14:05;100939.45;;;17.18;36.30
44663;BME280;30381;52.754;18.258;2023-04-28T12:16:41;100946.81;;;17.15;35.74
44663;BME280;30381;52.754;18.258;2023-04-28T12:19:20;100944.36;;;17.15;36.17
44663;BME280;30381;52.754;18.258;2023-04-28T12:22:06;100944.25;;;17.13;35.90
44663;BME280;30381;52.754;18.258;2023-04-28T12:24:33;100937.29;;;16.92;35.87
44663;BME280;30381;52.754;18.258;2023-04-28T12:27:15;100935.91;;;16.92;36.19
44663;BME280;30381;52.754;18.258;2023-04-28T12:29:43;100929.69;;;16.92;35.84
44663;BME280;30381;52.754;18.258;2023-04-28T12:32:11;100926.52;;;16.95;36.14
44663;BME280;30381;52.754;18.258;2023-04-28T12:34:40;100922.27;;;17.00;36.20
44663;BME280;30381;52.754;18.258;2023-04-28T12:37:10;100919.61;;;17.10;36.26
44663;BME280;30381;52.754;18.258;2023-04-28T12:39:39;100914.25;;;17.07;36.06
44663;BME280;30381;52.754;18.258;2023-04-28T12:42:06;100916.92;;;17.06;36.06
44663;BME280;30381;52.754;18.258;2023-04-28T12:44:37;100910.86;;;17.10;36.17
44663;BME280;30381;52.754;18.258;2023-04-28T12:47:06;100907.52;;;17.15;36.08
44663;BME280;30381;52.754;18.258;2023-04-28T12:49:38;100903.20;;;17.13;36.18
44663;BME280;30381;52.754;18.258;2023-04-28T12:52:09;100899.75;;;16.90;36.16
44663;BME280;30381;52.754;18.258;2023-04-28T12:54:36;100895.36;;;16.78;36.58
44663;BME280;30381;52.754;18.258;2023-04-28T12:57:04;100895.37;;;16.90;36.62
44663;BME280;30381;52.754;18.258;2023-04-28T12:59:33;100892.19;;;17.20;36.81
44663;BME280;30381;52.754;18.258;2023-04-28T14:45:35;100775.33;;;16.69;38.08
44663;BME280;30381;52.754;18.258;2023-04-28T14:48:03;100767.84;;;16.67;38.20
44663;BME280;30381;52.754;18.258;2023-04-28T14:50:29;100764.19;;;16.76;38.55
44663;BME280;30381;52.754;18.258;2023-04-28T14:52:55;100755.66;;;16.86;38.47
44663;BME280;30381;52.754;18.258;2023-04-28T14:55:25;100756.75;;;16.85;38.54
44663;BME280;30381;52.754;18.258;2023-04-28T14:57:52;100755.39;;;16.89;38.65
44663;BME280;30381;52.754;18.258;2023-04-28T15:00:19;100755.06;;;16.98;38.80
44663;BME280;30381;52.754;18.258;2023-04-28T15:02:46;100751.60;;;17.09;38.77
44663;BME280;30381;52.754;18.258;2023-04-28T15:05:14;100750.01;;;17.14;38.78
44663;BME280;30381;52.754;18.258;2023-04-28T15:07:41;100748.16;;;17.07;38.70
44663;BME280;30381;52.754;18.258;2023-04-28T15:10:20;100742.08;;;17.12;38.86
44663;BME280;30381;52.754;18.258;2023-04-28T15:12:54;100739.60;;;17.27;38.78
44663;BME280;30381;52.754;18.258;2023-04-28T15:15:22;100735.98;;;17.30;38.84
44663;BME280;30381;52.754;18.258;2023-04-28T15:17:48;100736.91;;;17.34;38.83
44663;BME280;30381;52.754;18.258;2023-04-28T15:20:15;100726.34;;;17.20;38.81
44663;BME280;30381;52.754;18.258;2023-04-28T15:22:41;100724.67;;;17.09;38.82
44663;BME280;30381;52.754;18.258;2023-04-28T15:25:14;100721.89;;;17.07;39.02
44663;BME280;30381;52.754;18.258;2023-04-28T15:27:42;100717.83;;;17.13;39.19
44663;BME280;30381;52.754;18.258;2023-04-28T15:30:10;100716.34;;;17.13;39.06
44663;BME280;30381;52.754;18.258;2023-04-28T15:32:37;100718.21;;;17.09;38.97
44663;BME280;30381;52.754;18.258;2023-04-28T15:35:06;100717.30;;;17.00;38.81
44663;BME280;30381;52.754;18.258;2023-04-28T15:37:39;100711.42;;;16.91;39.04